sensor_id;sensor_type;location;lat;lon;timestamp;temperature;humidity
13346;DHT22;6742;48.036;15.780;2022-07-23T00:00:43;23.60;99.90
13346;DHT22;6742;48.036;15.780;2022-07-23T00:03:10;23.60;99.90
13346;DHT22;6742;48.036;15.780;2022-07-23T00:05:37;23.50;99.90
13346;DHT22;6742;48.036;15.780;2022-07-23T00:08:04;23.50;99.90
13346;DHT22;6742;48.036;15.780;2022-07-23T00:10:31;23.40;99.90
13346;DHT22;6742;48.036;15.780;2022-07-23T00:12:58;23.40;99.90
13346;DHT22;6742;48.036;15.780;2022-07-23T00:15:27;23.30;99.90
13346;DHT22;6742;48.036;15.780;2022-07-23T00:17:54;23.30;99.90
13346;DHT22;6742;48.036;15.780;2022-07-23T00:20:21;23.30;99.90
13346;DHT22;6742;48.036;15.780;2022-07-23T00:22:49;23.30;99.90
13346;DHT22;6742;48.036;15.780;2022-07-23T00:25:16;23.30;99.90
13346;DHT22;6742;48.036;15.780;2022-07-23T00:27:43;23.30;99.90
13346;DHT22;6742;48.036;15.780;2022-07-23T00:30:11;23.30;99.90
13346;DHT22;6742;48.036;15.780;2022-07-23T00:32:47;23.30;99.90
13346;DHT22;6742;48.036;15.780;2022-07-23T00:35:15;23.30;99.90
13346;DHT22;6742;48.036;15.780;2022-07-23T00:37:42;23.20;99.90
13346;DHT22;6742;48.036;15.780;2022-07-23T00:40:10;23.20;99.90
13346;DHT22;6742;48.036;15.780;2022-07-23T00:42:40;23.10;99.90
13346;DHT22;6742;48.036;15.780;2022-07-23T00:45:08;23.10;99.90
13346;DHT22;6742;48.036;15.780;2022-07-23T00:47:35;23.10;99.90
13346;DHT22;6742;48.036;15.780;2022-07-23T00:50:08;23.20;99.90
13346;DHT22;6742;48.036;15.780;2022-07-23T00:52:37;23.30;99.90
13346;DHT22;6742;48.036;15.780;2022-07-23T00:55:05;23.30;99.90
13346;DHT22;6742;48.036;15.780;2022-07-23T00:57:32;23.30;99.90
13346;DHT22;6742;48.036;15.780;2022-07-23T00:59:59;23.30;99.90
13346;DHT22;6742;48.036;15.780;2022-07-23T01:02:27;23.30;99.90
13346;DHT22;6742;48.036;15.780;2022-07-23T01:04:54;23.30;99.90
13346;DHT22;6742;48.036;15.780;2022-07-23T01:07:23;23.30;99.90
13346;DHT22;6742;48.036;15.780;2022-07-23T01:09:51;23.30;99.90
13346;DHT22;6742;48.036;15.780;2022-07-23T01:12:18;23.30;99.90
13346;DHT22;6742;48.036;15.780;2022-07-23T01:14:52;23.20;99.90
13346;DHT22;6742;48.036;15.780;2022-07-23T01:17:19;23.20;99.90
13346;DHT22;6742;48.036;15.780;2022-07-23T01:19:46;23.10;99.90
13346;DHT22;6742;48.036;15.780;2022-07-23T01:22:15;23.20;99.90
13346;DHT22;6742;48.036;15.780;2022-07-23T01:24:45;23.20;99.90
13346;DHT22;6742;48.036;15.780;2022-07-23T01:27:12;23.20;99.90
13346;DHT22;6742;48.036;15.780;2022-07-23T01:29:39;23.20;99.90
13346;DHT22;6742;48.036;15.780;2022-07-23T01:32:06;23.10;99.90
13346;DHT22;6742;48.036;15.780;2022-07-23T01:34:33;23.10;99.90
13346;DHT22;6742;48.036;15.780;2022-07-23T01:37:03;23.10;99.90
13346;DHT22;6742;48.036;15.780;2022-07-23T01:39:30;23.10;99.90
13346;DHT22;6742;48.036;15.780;2022-07-23T01:41:59;23.10;99.90
13346;DHT22;6742;48.036;15.780;2022-07-23T01:44:26;23.10;99.90
13346;DHT22;6742;48.036;15.780;2022-07-23T01:46:53;23.10;99.90
13346;DHT22;6742;48.036;15.780;2022-07-23T01:49:20;23.10;99.90
13346;DHT22;6742;48.036;15.780;2022-07-23T01:51:47;23.10;99.90
13346;DHT22;6742;48.036;15.780;2022-07-23T01:54:33;23.10;99.90
13346;DHT22;6742;48.036;15.780;2022-07-23T01:57:02;23.10;99.90
13346;DHT22;6742;48.036;15.780;2022-07-23T01:59:29;23.20;99.90
13346;DHT22;6742;48.036;15.780;2022-07-23T02:01:56;23.20;99.90
13346;DHT22;6742;48.036;15.780;2022-07-23T02:04:24;23.10;99.90
13346;DHT22;6742;48.036;15.780;2022-07-23T02:06:52;23.20;99.90
13346;DHT22;6742;48.036;15.780;2022-07-23T02:09:19;23.20;99.90
13346;DHT22;6742;48.036;15.780;2022-07-23T02:11:47;23.20;99.90
13346;DHT22;6742;48.036;15.780;2022-07-23T02:14:18;23.10;99.90
13346;DHT22;6742;48.036;15.780;2022-07-23T02:16:45;23.10;99.90
13346;DHT22;6742;48.036;15.780;2022-07-23T02:19:12;23.10;99.90
13346;DHT22;6742;48.036;15.780;2022-07-23T02:21:39;23.10;99.90
13346;DHT22;6742;48.036;15.780;2022-07-23T02:24:06;23.10;99.90
13346;DHT22;6742;48.036;15.780;2022-07-23T02:26:33;23.10;99.90
13346;DHT22;6742;48.036;15.780;2022-07-23T02:29:01;23.10;99.90
13346;DHT22;6742;48.036;15.780;2022-07-23T02:31:32;23.10;99.90
13346;DHT22;6742;48.036;15.780;2022-07-23T02:34:00;23.10;99.90
13346;DHT22;6742;48.036;15.780;2022-07-23T02:36:27;23.10;99.90
13346;DHT22;6742;48.036;15.780;2022-07-23T02:38:54;23.20;99.90
13346;DHT22;6742;48.036;15.780;2022-07-23T02:41:21;23.20;99.90
13346;DHT22;6742;48.036;15.780;2022-07-23T02:43:49;23.10;99.90
13346;DHT22;6742;48.036;15.780;2022-07-23T02:46:16;23.10;99.90
13346;DHT22;6742;48.036;15.780;2022-07-23T02:48:45;23.10;99.90
13346;DHT22;6742;48.036;15.780;2022-07-23T02:51:12;23.10;99.90
13346;DHT22;6742;48.036;15.780;2022-07-23T02:53:39;23.00;99.90
13346;DHT22;6742;48.036;15.780;2022-07-23T02:56:06;23.00;99.90
13346;DHT22;6742;48.036;15.780;2022-07-23T02:58:33;22.90;99.90
13346;DHT22;6742;48.036;15.780;2022-07-23T03:01:00;22.90;99.90
13346;DHT22;6742;48.036;15.780;2022-07-23T03:03:29;22.90;99.90
13346;DHT22;6742;48.036;15.780;2022-07-23T03:05:58;22.90;99.90
13346;DHT22;6742;48.036;15.780;2022-07-23T03:08:25;22.90;99.90
13346;DHT22;6742;48.036;15.780;2022-07-23T03:10:52;22.90;99.90
13346;DHT22;6742;48.036;15.780;2022-07-23T03:13:22;22.90;99.90
13346;DHT22;6742;48.036;15.780;2022-07-23T03:15:49;22.90;99.90
13346;DHT22;6742;48.036;15.780;2022-07-23T03:18:16;22.90;99.90
13346;DHT22;6742;48.036;15.780;2022-07-23T03:20:46;22.90;99.90
13346;DHT22;6742;48.036;15.780;2022-07-23T03:23:16;22.90;99.90
13346;DHT22;6742;48.036;15.780;2022-07-23T03:25:43;22.90;99.90
13346;DHT22;6742;48.036;15.780;2022-07-23T03:28:10;22.90;99.90
13346;DHT22;6742;48.036;15.780;2022-07-23T03:30:37;22.80;99.90
13346;DHT22;6742;48.036;15.780;2022-07-23T03:33:04;22.70;99.90
13346;DHT22;6742;48.036;15.780;2022-07-23T03:35:31;22.70;99.90
13346;DHT22;6742;48.036;15.780;2022-07-23T03:37:58;22.70;99.90
13346;DHT22;6742;48.036;15.780;2022-07-23T03:40:26;22.80;99.90
13346;DHT22;6742;48.036;15.780;2022-07-23T03:42:53;22.70;99.90
13346;DHT22;6742;48.036;15.780;2022-07-23T03:45:20;22.70;99.90
13346;DHT22;6742;48.036;15.780;2022-07-23T03:47:47;22.70;99.90
13346;DHT22;6742;48.036;15.780;2022-07-23T03:50:15;22.70;99.90
13346;DHT22;6742;48.036;15.780;2022-07-23T03:52:42;22.60;99.90
13346;DHT22;6742;48.036;15.780;2022-07-23T03:55:09;22.50;99.90
13346;DHT22;6742;48.036;15.780;2022-07-23T03:57:37;22.50;99.90
13346;DHT22;6742;48.036;15.780;2022-07-23T04:00:09;22.40;99.90
13346;DHT22;6742;48.036;15.780;2022-07-23T04:02:36;22.50;99.90
13346;DHT22;6742;48.036;15.780;2022-07-23T04:05:04;22.50;99.90
13346;DHT22;6742;48.036;15.780;2022-07-23T04:07:31;22.50;99.90
13346;DHT22;6742;48.036;15.780;2022-07-23T04:09:58;22.50;99.90
13346;DHT22;6742;48.036;15.780;2022-07-23T04:12:25;22.60;99.90
13346;DHT22;6742;48.036;15.780;2022-07-23T04:14:53;22.60;99.90
13346;DHT22;6742;48.036;15.780;2022-07-23T04:17:21;22.60;99.90
13346;DHT22;6742;48.036;15.780;2022-07-23T04:19:48;22.50;99.90
13346;DHT22;6742;48.036;15.780;2022-07-23T04:22:15;22.50;99.90
13346;DHT22;6742;48.036;15.780;2022-07-23T04:24:41;22.50;99.90
13346;DHT22;6742;48.036;15.780;2022-07-23T04:27:09;22.50;99.90
13346;DHT22;6742;48.036;15.780;2022-07-23T04:29:35;22.50;99.90
13346;DHT22;6742;48.036;15.780;2022-07-23T04:32:05;22.50;99.90
13346;DHT22;6742;48.036;15.780;2022-07-23T04:34:32;22.50;99.90
13346;DHT22;6742;48.036;15.780;2022-07-23T04:36:59;22.60;99.90
13346;DHT22;6742;48.036;15.780;2022-07-23T04:39:26;22.60;99.90
13346;DHT22;6742;48.036;15.780;2022-07-23T04:41:53;22.70;99.90
13346;DHT22;6742;48.036;15.780;2022-07-23T04:44:20;22.70;99.90
13346;DHT22;6742;48.036;15.780;2022-07-23T04:46:47;22.80;99.90
13346;DHT22;6742;48.036;15.780;2022-07-23T04:49:15;22.90;99.90
13346;DHT22;6742;48.036;15.780;2022-07-23T04:51:42;23.30;99.90
13346;DHT22;6742;48.036;15.780;2022-07-23T04:54:09;23.70;99.90
13346;DHT22;6742;48.036;15.780;2022-07-23T04:56:36;24.00;99.90
13346;DHT22;6742;48.036;15.780;2022-07-23T04:59:03;24.30;99.90
13346;DHT22;6742;48.036;15.780;2022-07-23T05:01:30;24.40;99.80
13346;DHT22;6742;48.036;15.780;2022-07-23T05:03:57;24.30;99.90
13346;DHT22;6742;48.036;15.780;2022-07-23T05:06:25;24.20;99.90
13346;DHT22;6742;48.036;15.780;2022-07-23T05:08:52;24.10;99.90
13346;DHT22;6742;48.036;15.780;2022-07-23T05:11:21;24.00;99.90
13346;DHT22;6742;48.036;15.780;2022-07-23T05:13:47;23.80;99.90
13346;DHT22;6742;48.036;15.780;2022-07-23T05:16:14;23.80;99.90
13346;DHT22;6742;48.036;15.780;2022-07-23T05:18:41;23.90;99.90
13346;DHT22;6742;48.036;15.780;2022-07-23T05:21:08;24.00;99.90
13346;DHT22;6742;48.036;15.780;2022-07-23T05:23:39;24.00;99.90
13346;DHT22;6742;48.036;15.780;2022-07-23T05:26:06;23.90;99.90
13346;DHT22;6742;48.036;15.780;2022-07-23T05:28:33;23.90;99.90
13346;DHT22;6742;48.036;15.780;2022-07-23T05:31:00;23.90;99.90
13346;DHT22;6742;48.036;15.780;2022-07-23T05:33:32;23.80;99.90
13346;DHT22;6742;48.036;15.780;2022-07-23T05:36:01;23.90;99.90
13346;DHT22;6742;48.036;15.780;2022-07-23T05:38:28;24.10;99.90
13346;DHT22;6742;48.036;15.780;2022-07-23T05:40:57;24.30;99.90
13346;DHT22;6742;48.036;15.780;2022-07-23T05:43:24;24.30;99.90
13346;DHT22;6742;48.036;15.780;2022-07-23T05:45:51;24.30;99.90
13346;DHT22;6742;48.036;15.780;2022-07-23T05:48:18;24.30;99.90
13346;DHT22;6742;48.036;15.780;2022-07-23T05:50:46;24.30;99.90
13346;DHT22;6742;48.036;15.780;2022-07-23T05:53:13;24.40;99.90
13346;DHT22;6742;48.036;15.780;2022-07-23T05:55:40;24.70;99.90
13346;DHT22;6742;48.036;15.780;2022-07-23T05:58:09;25.10;99.90
13346;DHT22;6742;48.036;15.780;2022-07-23T06:00:36;25.30;99.90
13346;DHT22;6742;48.036;15.780;2022-07-23T06:03:03;25.30;99.90
13346;DHT22;6742;48.036;15.780;2022-07-23T06:05:30;25.20;99.90
13346;DHT22;6742;48.036;15.780;2022-07-23T06:08:00;25.30;99.90
13346;DHT22;6742;48.036;15.780;2022-07-23T06:10:27;25.60;99.80
13346;DHT22;6742;48.036;15.780;2022-07-23T06:12:54;26.20;97.90
13346;DHT22;6742;48.036;15.780;2022-07-23T06:15:22;26.50;97.80
13346;DHT22;6742;48.036;15.780;2022-07-23T06:17:50;26.90;97.70
13346;DHT22;6742;48.036;15.780;2022-07-23T06:20:17;27.50;96.80
13346;DHT22;6742;48.036;15.780;2022-07-23T06:22:44;28.10;95.70
13346;DHT22;6742;48.036;15.780;2022-07-23T06:25:11;28.50;95.20
13346;DHT22;6742;48.036;15.780;2022-07-23T06:27:38;28.90;94.00
13346;DHT22;6742;48.036;15.780;2022-07-23T06:30:06;29.00;94.10
13346;DHT22;6742;48.036;15.780;2022-07-23T06:32:35;29.20;93.40
13346;DHT22;6742;48.036;15.780;2022-07-23T06:35:02;29.60;93.50
13346;DHT22;6742;48.036;15.780;2022-07-23T06:37:29;29.70;92.70
13346;DHT22;6742;48.036;15.780;2022-07-23T06:39:56;29.70;92.90
13346;DHT22;6742;48.036;15.780;2022-07-23T06:42:23;29.50;93.50
13346;DHT22;6742;48.036;15.780;2022-07-23T06:44:50;29.50;93.90
13346;DHT22;6742;48.036;15.780;2022-07-23T06:47:17;29.80;94.00
13346;DHT22;6742;48.036;15.780;2022-07-23T06:49:46;30.00;93.70
13346;DHT22;6742;48.036;15.780;2022-07-23T06:52:13;30.20;92.40
13346;DHT22;6742;48.036;15.780;2022-07-23T06:54:42;30.10;92.00
13346;DHT22;6742;48.036;15.780;2022-07-23T06:57:09;30.10;92.30
13346;DHT22;6742;48.036;15.780;2022-07-23T06:59:36;30.10;92.90
13346;DHT22;6742;48.036;15.780;2022-07-23T07:02:06;30.20;92.50
13346;DHT22;6742;48.036;15.780;2022-07-23T07:04:33;30.50;92.20
13346;DHT22;6742;48.036;15.780;2022-07-23T07:07:02;30.70;92.40
13346;DHT22;6742;48.036;15.780;2022-07-23T07:09:29;31.20;91.60
13346;DHT22;6742;48.036;15.780;2022-07-23T07:11:56;31.30;90.80
13346;DHT22;6742;48.036;15.780;2022-07-23T07:14:23;31.20;90.10
13346;DHT22;6742;48.036;15.780;2022-07-23T07:16:50;31.10;89.00
13346;DHT22;6742;48.036;15.780;2022-07-23T07:19:17;30.90;89.70
13346;DHT22;6742;48.036;15.780;2022-07-23T07:21:44;30.40;89.30
13346;DHT22;6742;48.036;15.780;2022-07-23T07:24:12;30.10;91.40
13346;DHT22;6742;48.036;15.780;2022-07-23T07:26:39;29.90;91.10
13346;DHT22;6742;48.036;15.780;2022-07-23T07:29:06;30.10;91.60
13346;DHT22;6742;48.036;15.780;2022-07-23T07:31:33;30.40;91.50
13346;DHT22;6742;48.036;15.780;2022-07-23T07:34:00;30.70;90.30
13346;DHT22;6742;48.036;15.780;2022-07-23T07:36:27;31.10;90.00
13346;DHT22;6742;48.036;15.780;2022-07-23T07:38:54;31.40;88.30
13346;DHT22;6742;48.036;15.780;2022-07-23T07:41:22;31.70;89.30
13346;DHT22;6742;48.036;15.780;2022-07-23T07:43:51;32.10;88.80
13346;DHT22;6742;48.036;15.780;2022-07-23T07:46:18;32.10;84.70
13346;DHT22;6742;48.036;15.780;2022-07-23T07:48:45;32.20;86.10
13346;DHT22;6742;48.036;15.780;2022-07-23T07:51:12;32.50;84.10
13346;DHT22;6742;48.036;15.780;2022-07-23T07:53:39;32.60;83.80
13346;DHT22;6742;48.036;15.780;2022-07-23T07:56:07;32.90;83.80
13346;DHT22;6742;48.036;15.780;2022-07-23T07:58:35;32.70;81.90
13346;DHT22;6742;48.036;15.780;2022-07-23T08:01:02;32.90;81.30
13346;DHT22;6742;48.036;15.780;2022-07-23T08:03:29;32.90;83.80
13346;DHT22;6742;48.036;15.780;2022-07-23T08:05:56;32.90;82.40
13346;DHT22;6742;48.036;15.780;2022-07-23T08:08:24;33.00;82.90
13346;DHT22;6742;48.036;15.780;2022-07-23T08:10:51;33.20;82.10
13346;DHT22;6742;48.036;15.780;2022-07-23T08:13:18;33.30;80.60
13346;DHT22;6742;48.036;15.780;2022-07-23T08:15:46;33.30;81.60
13346;DHT22;6742;48.036;15.780;2022-07-23T08:18:13;33.50;81.10
13346;DHT22;6742;48.036;15.780;2022-07-23T08:20:40;33.70;81.20
13346;DHT22;6742;48.036;15.780;2022-07-23T08:23:11;33.70;81.90
13346;DHT22;6742;48.036;15.780;2022-07-23T08:25:39;33.90;81.00
13346;DHT22;6742;48.036;15.780;2022-07-23T08:28:08;34.00;80.80
13346;DHT22;6742;48.036;15.780;2022-07-23T08:30:40;34.00;79.40
13346;DHT22;6742;48.036;15.780;2022-07-23T08:33:09;34.00;79.40
13346;DHT22;6742;48.036;15.780;2022-07-23T08:35:39;34.10;79.30
13346;DHT22;6742;48.036;15.780;2022-07-23T08:38:08;34.10;78.60
13346;DHT22;6742;48.036;15.780;2022-07-23T08:40:36;34.10;77.70
13346;DHT22;6742;48.036;15.780;2022-07-23T08:43:08;34.20;79.70
13346;DHT22;6742;48.036;15.780;2022-07-23T08:45:37;34.10;76.00
13346;DHT22;6742;48.036;15.780;2022-07-23T08:48:08;34.10;76.10
13346;DHT22;6742;48.036;15.780;2022-07-23T08:50:35;34.20;79.70
13346;DHT22;6742;48.036;15.780;2022-07-23T08:53:05;34.50;77.60
13346;DHT22;6742;48.036;15.780;2022-07-23T08:55:33;34.50;76.40
13346;DHT22;6742;48.036;15.780;2022-07-23T08:58:00;34.50;76.50
13346;DHT22;6742;48.036;15.780;2022-07-23T09:00:27;34.40;75.70
13346;DHT22;6742;48.036;15.780;2022-07-23T09:02:55;34.60;76.90
13346;DHT22;6742;48.036;15.780;2022-07-23T09:05:24;34.60;75.70
13346;DHT22;6742;48.036;15.780;2022-07-23T09:08:11;34.40;75.30
13346;DHT22;6742;48.036;15.780;2022-07-23T09:10:50;34.30;76.00
13346;DHT22;6742;48.036;15.780;2022-07-23T09:13:32;34.20;75.90
13346;DHT22;6742;48.036;15.780;2022-07-23T09:16:02;34.10;75.60
13346;DHT22;6742;48.036;15.780;2022-07-23T09:18:35;33.90;77.70
13346;DHT22;6742;48.036;15.780;2022-07-23T09:21:17;33.60;77.10
13346;DHT22;6742;48.036;15.780;2022-07-23T09:23:47;33.60;78.70
13346;DHT22;6742;48.036;15.780;2022-07-23T09:26:23;33.80;76.90
13346;DHT22;6742;48.036;15.780;2022-07-23T09:28:55;34.00;75.60
13346;DHT22;6742;48.036;15.780;2022-07-23T09:31:23;34.30;74.90
13346;DHT22;6742;48.036;15.780;2022-07-23T09:33:50;34.50;75.80
13346;DHT22;6742;48.036;15.780;2022-07-23T09:36:28;34.80;75.30
13346;DHT22;6742;48.036;15.780;2022-07-23T09:38:55;35.00;72.50
13346;DHT22;6742;48.036;15.780;2022-07-23T09:41:22;35.20;71.70
13346;DHT22;6742;48.036;15.780;2022-07-23T09:43:55;35.10;72.60
13346;DHT22;6742;48.036;15.780;2022-07-23T09:46:24;35.30;71.90
13346;DHT22;6742;48.036;15.780;2022-07-23T09:48:51;35.40;72.80
13346;DHT22;6742;48.036;15.780;2022-07-23T09:51:18;35.10;70.70
13346;DHT22;6742;48.036;15.780;2022-07-23T09:53:51;35.10;72.70
13346;DHT22;6742;48.036;15.780;2022-07-23T09:56:20;35.00;72.50
13346;DHT22;6742;48.036;15.780;2022-07-23T09:58:49;34.80;72.70
13346;DHT22;6742;48.036;15.780;2022-07-23T10:01:17;34.50;73.20
13346;DHT22;6742;48.036;15.780;2022-07-23T10:03:46;34.30;73.00
13346;DHT22;6742;48.036;15.780;2022-07-23T10:06:14;34.40;73.70
13346;DHT22;6742;48.036;15.780;2022-07-23T10:08:41;34.40;73.80
13346;DHT22;6742;48.036;15.780;2022-07-23T10:11:13;34.60;74.50
13346;DHT22;6742;48.036;15.780;2022-07-23T10:13:42;34.60;72.70
13346;DHT22;6742;48.036;15.780;2022-07-23T10:16:28;34.60;75.30
13346;DHT22;6742;48.036;15.780;2022-07-23T10:18:55;34.50;74.80
13346;DHT22;6742;48.036;15.780;2022-07-23T10:21:27;34.20;73.00
13346;DHT22;6742;48.036;15.780;2022-07-23T10:24:04;33.80;73.50
13346;DHT22;6742;48.036;15.780;2022-07-23T10:26:41;33.60;74.60
13346;DHT22;6742;48.036;15.780;2022-07-23T10:29:21;33.70;74.80
13346;DHT22;6742;48.036;15.780;2022-07-23T10:32:00;33.70;74.90
13346;DHT22;6742;48.036;15.780;2022-07-23T10:34:36;33.60;74.30
13346;DHT22;6742;48.036;15.780;2022-07-23T10:37:13;33.70;76.60
13346;DHT22;6742;48.036;15.780;2022-07-23T10:39:44;33.70;77.00
13346;DHT22;6742;48.036;15.780;2022-07-23T10:42:13;33.50;75.30
13346;DHT22;6742;48.036;15.780;2022-07-23T10:44:42;33.70;76.00
13346;DHT22;6742;48.036;15.780;2022-07-23T10:47:10;33.30;75.50
13346;DHT22;6742;48.036;15.780;2022-07-23T10:49:44;33.20;74.60
13346;DHT22;6742;48.036;15.780;2022-07-23T10:52:25;32.90;73.60
13346;DHT22;6742;48.036;15.780;2022-07-23T10:54:54;32.90;79.00
13346;DHT22;6742;48.036;15.780;2022-07-23T10:57:25;33.40;76.30
13346;DHT22;6742;48.036;15.780;2022-07-23T11:00:12;33.60;76.00
13346;DHT22;6742;48.036;15.780;2022-07-23T11:02:41;34.00;73.60
13346;DHT22;6742;48.036;15.780;2022-07-23T11:05:10;34.20;72.80
13346;DHT22;6742;48.036;15.780;2022-07-23T11:10:54;34.30;74.00
13346;DHT22;6742;48.036;15.780;2022-07-23T11:13:46;34.40;71.80
13346;DHT22;6742;48.036;15.780;2022-07-23T11:16:41;34.10;74.10
13346;DHT22;6742;48.036;15.780;2022-07-23T11:19:12;34.10;72.70
13346;DHT22;6742;48.036;15.780;2022-07-23T11:21:43;34.10;73.20
13346;DHT22;6742;48.036;15.780;2022-07-23T11:24:12;33.90;76.40
13346;DHT22;6742;48.036;15.780;2022-07-23T11:26:44;33.70;73.70
13346;DHT22;6742;48.036;15.780;2022-07-23T11:29:47;33.50;72.30
13346;DHT22;6742;48.036;15.780;2022-07-23T11:32:35;33.30;71.60
13346;DHT22;6742;48.036;15.780;2022-07-23T11:35:19;32.70;73.30
13346;DHT22;6742;48.036;15.780;2022-07-23T11:37:47;32.40;74.20
13346;DHT22;6742;48.036;15.780;2022-07-23T11:40:16;31.90;72.90
13346;DHT22;6742;48.036;15.780;2022-07-23T11:42:55;31.70;75.30
13346;DHT22;6742;48.036;15.780;2022-07-23T11:45:25;31.60;75.40
13346;DHT22;6742;48.036;15.780;2022-07-23T11:47:52;31.50;77.00
13346;DHT22;6742;48.036;15.780;2022-07-23T11:50:25;31.40;77.40
13346;DHT22;6742;48.036;15.780;2022-07-23T11:52:52;31.40;78.80
13346;DHT22;6742;48.036;15.780;2022-07-23T11:55:19;31.10;77.80
13346;DHT22;6742;48.036;15.780;2022-07-23T11:57:47;31.00;78.90
13346;DHT22;6742;48.036;15.780;2022-07-23T12:00:15;31.00;79.20
13346;DHT22;6742;48.036;15.780;2022-07-23T12:02:46;31.20;80.10
13346;DHT22;6742;48.036;15.780;2022-07-23T12:05:14;31.40;78.30
13346;DHT22;6742;48.036;15.780;2022-07-23T12:07:43;31.40;77.70
13346;DHT22;6742;48.036;15.780;2022-07-23T12:10:13;31.40;78.30
13346;DHT22;6742;48.036;15.780;2022-07-23T12:12:42;31.40;78.70
13346;DHT22;6742;48.036;15.780;2022-07-23T12:15:10;31.30;78.80
13346;DHT22;6742;48.036;15.780;2022-07-23T12:17:42;31.30;79.40
13346;DHT22;6742;48.036;15.780;2022-07-23T12:20:13;31.40;79.50
13346;DHT22;6742;48.036;15.780;2022-07-23T12:22:41;31.50;77.90
13346;DHT22;6742;48.036;15.780;2022-07-23T12:25:10;31.50;79.10
13346;DHT22;6742;48.036;15.780;2022-07-23T12:27:38;31.40;77.60
13346;DHT22;6742;48.036;15.780;2022-07-23T12:30:25;31.20;78.10
13346;DHT22;6742;48.036;15.780;2022-07-23T12:32:57;31.10;77.60
13346;DHT22;6742;48.036;15.780;2022-07-23T12:35:33;31.10;79.00
13346;DHT22;6742;48.036;15.780;2022-07-23T12:38:04;31.10;80.60
13346;DHT22;6742;48.036;15.780;2022-07-23T12:40:33;31.10;78.80
13346;DHT22;6742;48.036;15.780;2022-07-23T12:43:03;31.30;79.10
13346;DHT22;6742;48.036;15.780;2022-07-23T12:45:46;31.40;78.60
13346;DHT22;6742;48.036;15.780;2022-07-23T12:48:18;31.70;78.50
13346;DHT22;6742;48.036;15.780;2022-07-23T12:50:57;31.90;78.30
13346;DHT22;6742;48.036;15.780;2022-07-23T12:53:27;32.00;78.40
13346;DHT22;6742;48.036;15.780;2022-07-23T12:55:59;32.00;76.70
13346;DHT22;6742;48.036;15.780;2022-07-23T12:58:27;31.80;76.00
13346;DHT22;6742;48.036;15.780;2022-07-23T13:01:06;31.70;77.00
13346;DHT22;6742;48.036;15.780;2022-07-23T13:03:36;31.50;76.00
13346;DHT22;6742;48.036;15.780;2022-07-23T13:06:06;31.40;76.70
13346;DHT22;6742;48.036;15.780;2022-07-23T13:08:35;31.10;75.50
13346;DHT22;6742;48.036;15.780;2022-07-23T13:11:03;31.00;78.00
13346;DHT22;6742;48.036;15.780;2022-07-23T13:13:32;30.90;78.70
13346;DHT22;6742;48.036;15.780;2022-07-23T13:15:59;30.80;76.40
13346;DHT22;6742;48.036;15.780;2022-07-23T13:18:27;31.00;78.30
13346;DHT22;6742;48.036;15.780;2022-07-23T13:20:55;30.80;77.10
13346;DHT22;6742;48.036;15.780;2022-07-23T13:23:24;31.00;77.00
13346;DHT22;6742;48.036;15.780;2022-07-23T13:25:51;31.00;75.60
13346;DHT22;6742;48.036;15.780;2022-07-23T13:28:20;30.80;77.40
13346;DHT22;6742;48.036;15.780;2022-07-23T13:30:48;30.70;76.90
13346;DHT22;6742;48.036;15.780;2022-07-23T13:33:17;30.50;79.10
13346;DHT22;6742;48.036;15.780;2022-07-23T13:35:44;30.30;79.10
13346;DHT22;6742;48.036;15.780;2022-07-23T13:38:11;30.10;79.20
13346;DHT22;6742;48.036;15.780;2022-07-23T13:40:41;30.10;79.30
13346;DHT22;6742;48.036;15.780;2022-07-23T13:43:09;30.00;80.50
13346;DHT22;6742;48.036;15.780;2022-07-23T13:45:39;30.00;78.60
13346;DHT22;6742;48.036;15.780;2022-07-23T13:48:08;30.00;79.00
13346;DHT22;6742;48.036;15.780;2022-07-23T13:50:36;30.10;80.10
13346;DHT22;6742;48.036;15.780;2022-07-23T13:53:04;30.20;78.20
13346;DHT22;6742;48.036;15.780;2022-07-23T13:55:31;30.30;79.90
13346;DHT22;6742;48.036;15.780;2022-07-23T13:58:00;30.50;79.20
13346;DHT22;6742;48.036;15.780;2022-07-23T14:00:27;30.50;80.00
13346;DHT22;6742;48.036;15.780;2022-07-23T14:02:56;30.50;77.80
13346;DHT22;6742;48.036;15.780;2022-07-23T14:05:23;30.50;78.60
13346;DHT22;6742;48.036;15.780;2022-07-23T14:07:50;30.50;80.60
13346;DHT22;6742;48.036;15.780;2022-07-23T14:10:19;30.50;80.40
13346;DHT22;6742;48.036;15.780;2022-07-23T14:12:47;30.60;79.60
13346;DHT22;6742;48.036;15.780;2022-07-23T14:15:18;30.40;80.90
13346;DHT22;6742;48.036;15.780;2022-07-23T14:17:45;30.40;80.10
13346;DHT22;6742;48.036;15.780;2022-07-23T14:20:14;30.30;79.20
13346;DHT22;6742;48.036;15.780;2022-07-23T14:22:41;30.30;79.20
13346;DHT22;6742;48.036;15.780;2022-07-23T14:25:09;30.30;80.60
13346;DHT22;6742;48.036;15.780;2022-07-23T14:27:36;30.30;78.30
13346;DHT22;6742;48.036;15.780;2022-07-23T14:30:05;30.30;78.20
13346;DHT22;6742;48.036;15.780;2022-07-23T14:32:33;30.20;79.00
13346;DHT22;6742;48.036;15.780;2022-07-23T14:35:00;30.20;79.70
13346;DHT22;6742;48.036;15.780;2022-07-23T14:37:27;30.20;79.70
13346;DHT22;6742;48.036;15.780;2022-07-23T14:39:54;30.10;80.00
13346;DHT22;6742;48.036;15.780;2022-07-23T14:42:21;30.10;79.00
13346;DHT22;6742;48.036;15.780;2022-07-23T14:44:48;30.00;78.70
13346;DHT22;6742;48.036;15.780;2022-07-23T14:47:15;29.90;78.40
13346;DHT22;6742;48.036;15.780;2022-07-23T14:49:47;29.90;78.90
13346;DHT22;6742;48.036;15.780;2022-07-23T14:52:17;29.90;78.00
13346;DHT22;6742;48.036;15.780;2022-07-23T14:54:43;29.90;77.00
13346;DHT22;6742;48.036;15.780;2022-07-23T14:57:10;29.80;77.10
13346;DHT22;6742;48.036;15.780;2022-07-23T14:59:41;29.70;79.20
13346;DHT22;6742;48.036;15.780;2022-07-23T15:02:11;29.70;78.50
13346;DHT22;6742;48.036;15.780;2022-07-23T15:04:38;29.70;78.10
13346;DHT22;6742;48.036;15.780;2022-07-23T15:07:06;29.70;79.00
13346;DHT22;6742;48.036;15.780;2022-07-23T15:09:33;29.60;78.30
13346;DHT22;6742;48.036;15.780;2022-07-23T15:12:04;29.50;77.00
13346;DHT22;6742;48.036;15.780;2022-07-23T15:14:31;29.50;78.50
13346;DHT22;6742;48.036;15.780;2022-07-23T15:16:58;29.40;77.40
13346;DHT22;6742;48.036;15.780;2022-07-23T15:19:25;29.30;77.80
13346;DHT22;6742;48.036;15.780;2022-07-23T15:21:52;29.30;77.40
13346;DHT22;6742;48.036;15.780;2022-07-23T15:24:20;29.30;77.90
13346;DHT22;6742;48.036;15.780;2022-07-23T15:26:50;29.30;78.60
13346;DHT22;6742;48.036;15.780;2022-07-23T15:29:17;29.30;78.60
13346;DHT22;6742;48.036;15.780;2022-07-23T15:31:44;29.30;79.00
13346;DHT22;6742;48.036;15.780;2022-07-23T15:34:11;29.30;79.50
13346;DHT22;6742;48.036;15.780;2022-07-23T15:36:38;29.20;79.50
13346;DHT22;6742;48.036;15.780;2022-07-23T15:39:07;29.10;81.40
13346;DHT22;6742;48.036;15.780;2022-07-23T15:41:35;29.10;80.60
13346;DHT22;6742;48.036;15.780;2022-07-23T15:44:02;29.10;81.10